Time;durP1;ratioP1;P1;durP2;ratioP2;P2;SDS_P1;SDS_P2;PMS_P1;PMS_P2;Temp;Humidity;BMP_temperature;BMP_pressure;BME280_temperature;BME280_humidity;BME280_pressure;Samples;Min_cycle;Max_cycle;Signal;HPM_P1;HPM_P2
2021/06/13 00:01:13;;;;;;;14.38;7.10;;;12.00;94.60;;;;;;4938560;29;20042;-78
2021/06/13 00:03:39;;;;;;;15.85;7.10;;;12.00;94.70;;;;;;4937694;29;20032;-78
2021/06/13 00:06:05;;;;;;;11.75;6.35;;;12.00;94.70;;;;;;4921067;29;20035;-78
2021/06/13 00:08:31;;;;;;;17.70;7.57;;;12.00;94.80;;;;;;4938432;29;20058;-77
2021/06/13 00:10:57;;;;;;;13.38;7.00;;;11.90;94.90;;;;;;4937471;29;20039;-78
2021/06/13 00:13:25;;;;;;;15.43;7.25;;;12.00;95.30;;;;;;4921526;29;20031;-78
2021/06/13 00:15:51;;;;;;;14.65;7.28;;;12.00;95.10;;;;;;4937880;29;20113;-76
2021/06/13 00:18:17;;;;;;;12.68;7.22;;;11.90;95.10;;;;;;4937592;29;20047;-77
2021/06/13 00:20:43;;;;;;;14.23;7.75;;;11.90;95.20;;;;;;4920975;29;20038;-78
2021/06/13 00:23:09;;;;;;;14.55;6.97;;;11.90;95.30;;;;;;4921025;29;20020;-77
2021/06/13 00:25:35;;;;;;;17.20;8.30;;;11.80;95.40;;;;;;4920150;29;20384;-77
2021/06/13 00:28:01;;;;;;;14.23;7.75;;;11.80;95.50;;;;;;4920743;29;20028;-77
2021/06/13 00:30:27;;;;;;;13.88;7.30;;;11.80;95.50;;;;;;4921266;29;20510;-76
2021/06/13 00:32:52;;;;;;;15.80;7.45;;;11.80;95.50;;;;;;4920388;29;20023;-76
2021/06/13 00:35:20;;;;;;;15.43;7.90;;;11.80;95.50;;;;;;4937700;29;20028;-77
2021/06/13 00:37:45;;;;;;;12.93;7.78;;;11.80;95.60;;;;;;4920674;29;20154;-77
2021/06/13 00:40:11;;;;;;;12.75;7.38;;;11.70;95.70;;;;;;4920216;29;20039;-76
2021/06/13 00:42:38;;;;;;;10.75;6.50;;;11.70;95.70;;;;;;4920779;29;20126;-77
2021/06/13 00:45:06;;;;;;;10.70;7.05;;;11.70;95.70;;;;;;4919709;29;20388;-77
2021/06/13 00:47:32;;;;;;;14.98;7.65;;;11.70;95.80;;;;;;4937865;29;20028;-76
2021/06/13 00:49:57;;;;;;;14.02;7.45;;;11.70;95.90;;;;;;4937314;29;20031;-77
2021/06/13 00:52:26;;;;;;;13.98;7.57;;;11.80;95.80;;;;;;4919981;29;20031;-77
2021/06/13 00:54:52;;;;;;;19.25;7.95;;;11.90;95.70;;;;;;4937268;29;20023;-77
2021/06/13 00:57:18;;;;;;;12.10;6.80;;;12.00;95.60;;;;;;4936869;29;20047;-77
2021/06/13 00:59:44;;;;;;;11.73;7.70;;;12.10;95.40;;;;;;4919458;29;20074;-77
2021/06/13 01:02:10;;;;;;;17.90;9.60;;;12.20;95.40;;;;;;4937390;29;20031;-77
2021/06/13 01:04:35;;;;;;;14.73;7.53;;;12.20;95.40;;;;;;4937197;29;20035;-77
2021/06/13 01:07:09;;;;;;;19.40;8.55;;;12.20;95.30;;;;;;4919427;29;20046;-78
2021/06/13 01:09:41;;;;;;;13.52;7.18;;;12.20;95.50;;;;;;4920188;29;20027;-78
2021/06/13 01:12:15;;;;;;;15.57;7.88;;;12.10;95.40;;;;;;4937161;29;20038;-77
2021/06/13 01:15:08;;;;;;;12.77;7.28;;;12.10;95.40;;;;;;4919284;29;20028;-79
2021/06/13 01:17:52;;;;;;;16.52;7.28;;;12.00;95.60;;;;;;4919930;29;20110;-78
2021/06/13 01:20:21;;;;;;;11.43;7.60;;;11.90;95.80;;;;;;4919414;29;20370;-77
2021/06/13 01:23:24;;;;;;;13.35;7.95;;;11.80;96.00;;;;;;4919699;29;20058;-78
2021/06/13 01:25:52;;;;;;;14.63;8.65;;;11.80;96.10;;;;;;4919443;29;20047;-77
2021/06/13 01:28:46;;;;;;;17.75;8.88;;;11.70;96.10;;;;;;4919319;29;20028;-77
2021/06/13 01:31:13;;;;;;;15.52;8.00;;;11.70;96.20;;;;;;4936825;29;20440;-77
2021/06/13 01:33:40;;;;;;;12.57;7.22;;;11.60;96.20;;;;;;4936495;29;20395;-76
2021/06/13 01:36:07;;;;;;;13.50;8.43;;;11.60;96.30;;;;;;4918302;29;20118;-77
2021/06/13 01:38:35;;;;;;;12.68;7.47;;;11.50;96.50;;;;;;4919621;29;20035;-77
2021/06/13 01:41:04;;;;;;;11.57;7.22;;;11.40;96.60;;;;;;4936397;29;20027;-77
2021/06/13 01:43:31;;;;;;;13.90;8.48;;;11.40;96.70;;;;;;4919121;29;20051;-78
2021/06/13 01:45:58;;;;;;;11.23;7.85;;;11.40;96.90;;;;;;4919458;29;20035;-76
2021/06/13 01:48:24;;;;;;;15.10;7.63;;;11.30;96.90;;;;;;4918767;29;20122;-76
2021/06/13 01:50:50;;;;;;;19.15;8.35;;;11.30;97.00;;;;;;4919314;29;20129;-78
2021/06/13 01:53:17;;;;;;;12.90;8.43;;;11.30;97.10;;;;;;4936501;29;20043;-77
2021/06/13 01:55:48;;;;;;;19.05;8.95;;;11.30;97.10;;;;;;4918887;29;20120;-77
2021/06/13 01:58:18;;;;;;;15.82;8.25;;;11.30;97.20;;;;;;4919325;29;20036;-77
2021/06/13 02:00:44;;;;;;;13.30;8.27;;;11.30;97.20;;;;;;4919075;29;20016;-76
2021/06/13 02:03:11;;;;;;;15.57;8.18;;;11.30;97.20;;;;;;4935809;29;20035;-76
2021/06/13 02:05:38;;;;;;;16.23;8.07;;;11.30;97.30;;;;;;4918940;29;20035;-76
2021/06/13 02:08:05;;;;;;;15.85;8.88;;;11.20;97.30;;;;;;4917870;29;20366;-76
2021/06/13 02:10:32;;;;;;;12.38;8.07;;;11.20;97.30;;;;;;4918434;29;20067;-79
2021/06/13 02:12:59;;;;;;;17.98;8.63;;;11.30;97.40;;;;;;4918767;29;20047;-79
2021/06/13 02:15:28;;;;;;;18.27;8.57;;;11.20;97.40;;;;;;4918836;29;20110;-78
2021/06/13 02:17:56;;;;;;;16.70;8.73;;;11.20;97.50;;;;;;4917998;29;20393;-78
2021/06/13 02:20:34;;;;;;;18.20;8.63;;;11.20;97.60;;;;;;4918957;29;20063;-79
2021/06/13 02:23:01;;;;;;;15.02;7.88;;;11.20;97.60;;;;;;4918912;29;20024;-79
2021/06/13 02:25:27;;;;;;;14.40;8.45;;;11.20;97.90;;;;;;4917785;29;20032;-78
2021/06/13 02:27:58;;;;;;;16.77;7.47;;;11.20;97.70;;;;;;4918787;29;20024;-76
2021/06/13 02:30:26;;;;;;;12.23;7.93;;;11.20;97.70;;;;;;4918347;29;20020;-80
2021/06/13 02:32:55;;;;;;;19.70;8.00;;;11.20;97.70;;;;;;4935531;29;20126;-76
2021/06/13 02:35:22;;;;;;;18.15;8.32;;;11.20;97.80;;;;;;4922275;29;20023;-76
2021/06/13 02:37:49;;;;;;;10.90;7.43;;;11.20;97.70;;;;;;4942091;28;20045;-76
2021/06/13 02:40:17;;;;;;;14.80;8.07;;;11.10;97.70;;;;;;4942848;28;20034;-78
2021/06/13 02:42:42;;;;;;;14.88;8.40;;;11.10;97.90;;;;;;4960110;28;20022;-76
2021/06/13 02:45:10;;;;;;;15.23;8.70;;;11.10;98.00;;;;;;4941714;28;20041;-75
2021/06/13 02:47:37;;;;;;;15.52;7.70;;;11.10;98.10;;;;;;4959892;28;20389;-74
2021/06/13 02:50:05;;;;;;;14.15;8.55;;;11.10;98.10;;;;;;4940509;29;20034;-74
2021/06/13 02:52:47;;;;;;;13.00;7.70;;;11.00;98.10;;;;;;4952614;29;20031;-74
2021/06/13 02:55:19;;;;;;;13.65;6.95;;;11.10;98.20;;;;;;4954342;29;20388;-75
2021/06/13 02:57:55;;;;;;;13.77;7.82;;;11.00;98.20;;;;;;4954283;29;20491;-74
2021/06/13 03:00:24;;;;;;;11.45;6.45;;;11.00;98.30;;;;;;4953991;29;20035;-75
2021/06/13 03:02:52;;;;;;;11.95;6.80;;;10.90;98.30;;;;;;4953051;29;20042;-76
2021/06/13 03:05:24;;;;;;;15.13;7.55;;;10.90;98.30;;;;;;4936960;29;20051;-75
2021/06/13 03:07:50;;;;;;;;;;;10.90;98.40;;;;;;4936797;29;20024;-76
2021/06/13 03:10:16;;;;;;;9.95;5.75;;;10.80;98.30;;;;;;4954399;29;19910;-75
2021/06/13 03:12:43;;;;;;;11.55;6.80;;;10.70;98.40;;;;;;4936192;29;20106;-75
2021/06/13 03:15:09;;;;;;;10.52;6.82;;;10.70;98.50;;;;;;4936751;29;20020;-77
2021/06/13 03:17:37;;;;;;;14.63;6.70;;;10.60;98.60;;;;;;4936809;29;20447;-79
2021/06/13 03:20:05;;;;;;;10.30;7.47;;;10.50;98.60;;;;;;4935733;29;20038;-76
2021/06/13 03:22:33;;;;;;;18.52;8.43;;;10.50;98.80;;;;;;4936895;29;20219;-77
2021/06/13 03:25:00;;;;;;;13.25;7.57;;;10.50;98.90;;;;;;4936498;29;20114;-76
2021/06/13 03:27:26;;;;;;;20.60;8.38;;;10.60;98.90;;;;;;4936205;29;20023;-76
2021/06/13 03:29:53;;;;;;;11.98;6.75;;;10.60;98.80;;;;;;4936831;29;20061;-77
2021/06/13 03:32:20;;;;;;;10.93;6.72;;;10.60;98.80;;;;;;4936755;29;20055;-76
2021/06/13 03:34:47;;;;;;;11.40;7.32;;;10.60;98.80;;;;;;4953021;29;20074;-76
2021/06/13 03:37:13;;;;;;;10.27;6.85;;;10.60;98.90;;;;;;4936860;29;20028;-76
2021/06/13 03:39:42;;;;;;;15.05;7.45;;;10.50;98.90;;;;;;4952698;29;20483;-76
2021/06/13 03:42:09;;;;;;;12.98;7.38;;;10.60;99.00;;;;;;4952990;29;20494;-76
2021/06/13 03:44:36;;;;;;;12.73;8.88;;;10.60;99.10;;;;;;4936252;29;20054;-77
2021/06/13 03:47:02;;;;;;;11.88;7.18;;;10.60;99.00;;;;;;4953587;29;20046;-76
2021/06/13 03:49:28;;;;;;;14.50;7.57;;;10.60;99.10;;;;;;4936158;29;20030;-76
2021/06/13 03:51:54;;;;;;;16.02;8.80;;;10.60;99.10;;;;;;4936460;29;20078;-76
2021/06/13 03:54:20;;;;;;;10.18;7.50;;;10.60;99.10;;;;;;4953765;29;20099;-75
2021/06/13 03:56:58;;;;;;;14.50;8.05;;;10.60;99.10;;;;;;4935564;29;20039;-76
2021/06/13 03:59:25;;;;;;;14.55;7.70;;;10.50;99.10;;;;;;4953827;29;20102;-76
2021/06/13 04:01:52;;;;;;;13.18;7.50;;;10.50;99.20;;;;;;4952789;29;20126;-76
2021/06/13 04:04:19;;;;;;;14.52;7.43;;;10.60;99.20;;;;;;4936311;29;20115;-76
2021/06/13 04:06:48;;;;;;;10.98;7.00;;;10.60;99.20;;;;;;4936157;29;20039;-76
2021/06/13 04:09:18;;;;;;;9.20;6.72;;;10.60;99.20;;;;;;4935955;29;20031;-76
2021/06/13 04:11:45;;;;;;;16.02;8.32;;;10.60;99.20;;;;;;4936221;29;20071;-75
2021/06/13 04:14:12;;;;;;;13.93;7.25;;;10.60;99.20;;;;;;4936685;29;20023;-77
2021/06/13 04:16:40;;;;;;;12.43;7.07;;;10.70;99.30;;;;;;4953008;29;20043;-76
2021/06/13 04:19:09;;;;;;;13.02;6.95;;;10.70;99.20;;;;;;4953273;29;20110;-76
2021/06/13 04:21:35;;;;;;;13.70;7.90;;;10.80;99.20;;;;;;4936360;29;20030;-76
2021/06/13 04:24:01;;;;;;;13.50;7.75;;;10.70;99.10;;;;;;4935489;29;20031;-76
2021/06/13 04:26:29;;;;;;;12.98;7.30;;;10.80;99.20;;;;;;4953365;29;20031;-77
2021/06/13 04:28:55;;;;;;;15.52;7.70;;;10.80;99.10;;;;;;4936318;29;20015;-76
2021/06/13 04:31:21;;;;;;;17.48;8.23;;;10.80;99.10;;;;;;4936998;29;20023;-76
2021/06/13 04:33:49;;;;;;;12.73;7.97;;;10.90;99.20;;;;;;4956840;29;20030;-76
2021/06/13 04:36:16;;;;;;;13.82;6.93;;;10.90;99.10;;;;;;4939643;29;20396;-76
2021/06/13 04:38:42;;;;;;;14.43;7.45;;;10.90;99.20;;;;;;4939091;29;20023;-76
2021/06/13 04:41:09;;;;;;;16.50;8.15;;;11.00;99.20;;;;;;4938358;29;20027;-81
2021/06/13 04:43:37;;;;;;;12.82;7.68;;;11.00;99.30;;;;;;4939930;29;20026;-71
2021/06/13 04:46:04;;;;;;;15.75;8.52;;;11.60;99.20;;;;;;4955817;29;20047;-74
2021/06/13 04:48:29;;;;;;;15.45;8.18;;;12.00;98.00;;;;;;4940375;29;20027;-71
2021/06/13 04:50:59;;;;;;;18.38;10.13;;;12.10;97.70;;;;;;4937387;29;20027;-72
2021/06/13 04:53:50;;;;;;;15.20;8.13;;;12.10;97.70;;;;;;4936977;29;20031;-75
2021/06/13 04:56:40;;;;;;;11.70;7.45;;;12.20;97.80;;;;;;4936201;29;20080;-72
2021/06/13 04:59:05;;;;;;;13.00;8.02;;;12.30;97.80;;;;;;4919644;29;20027;-73
2021/06/13 05:01:32;;;;;;;17.38;7.97;;;12.40;97.70;;;;;;4937705;29;20042;-78
2021/06/13 05:03:58;;;;;;;15.20;7.35;;;12.50;97.70;;;;;;4920028;29;20429;-75
2021/06/13 05:06:24;;;;;;;14.95;8.18;;;12.60;97.40;;;;;;4936701;29;20481;-73
2021/06/13 05:08:50;;;;;;;13.55;7.68;;;12.70;97.10;;;;;;4937551;29;20106;-73
2021/06/13 05:11:16;;;;;;;16.70;7.72;;;12.70;97.10;;;;;;4937327;29;20119;-78
2021/06/13 05:13:42;;;;;;;17.75;8.93;;;12.70;97.10;;;;;;4936744;29;20027;-74
2021/06/13 05:16:08;;;;;;;17.77;8.05;;;12.70;97.10;;;;;;4919905;29;20420;-77
2021/06/13 05:18:34;;;;;;;18.95;7.93;;;12.70;97.20;;;;;;4937303;29;20048;-71
2021/06/13 05:21:00;;;;;;;13.57;7.90;;;12.70;97.30;;;;;;4936415;29;20035;-75
2021/06/13 05:23:26;;;;;;;14.30;7.75;;;12.70;97.30;;;;;;4937146;29;20040;-79
2021/06/13 05:25:56;;;;;;;12.80;7.50;;;12.70;97.40;;;;;;4936724;29;20048;-73
2021/06/13 05:28:23;;;;;;;15.63;7.03;;;12.70;97.30;;;;;;4935375;29;20500;-76
2021/06/13 05:30:49;;;;;;;15.25;7.43;;;12.70;97.20;;;;;;4935559;29;20031;-72
2021/06/13 05:33:15;;;;;;;16.30;7.50;;;12.80;97.00;;;;;;4936849;29;20031;-73
2021/06/13 05:35:41;;;;;;;14.32;7.43;;;12.80;96.80;;;;;;4936657;29;20413;-74
2021/06/13 05:38:08;;;;;;;14.02;8.18;;;12.90;96.40;;;;;;4936756;29;20031;-74
2021/06/13 05:40:35;;;;;;;15.00;7.18;;;13.00;96.30;;;;;;4936237;29;20103;-75
2021/06/13 05:43:01;;;;;;;13.15;6.93;;;13.00;96.10;;;;;;4936421;29;20044;-77
2021/06/13 05:45:29;;;;;;;11.90;6.63;;;13.10;95.90;;;;;;4936803;29;20039;-83
2021/06/13 05:47:55;;;;;;;12.98;6.50;;;13.10;95.70;;;;;;4918920;29;20070;-84
2021/06/13 05:50:22;;;;;;;11.20;6.40;;;13.20;95.50;;;;;;4935696;29;20133;-86
2021/06/13 05:52:48;;;;;;;13.35;6.47;;;13.30;95.30;;;;;;4936672;29;20039;-88
2021/06/13 05:55:15;;;;;;;12.90;6.38;;;13.30;94.90;;;;;;4936297;29;20038;-88
2021/06/13 05:57:41;;;;;;;11.07;5.95;;;13.40;94.70;;;;;;4936017;29;20051;-84
2021/06/13 06:00:08;;;;;;;16.80;6.88;;;13.50;94.60;;;;;;4936442;29;20412;-85
2021/06/13 06:02:34;;;;;;;15.30;6.45;;;13.50;94.60;;;;;;4936061;29;20047;-85
2021/06/13 06:05:05;;;;;;;14.30;6.60;;;13.60;94.30;;;;;;4936143;29;20392;-87
2021/06/13 06:07:31;;;;;;;11.48;6.03;;;13.70;93.90;;;;;;4936778;29;20458;-86
2021/06/13 06:09:57;;;;;;;14.27;6.45;;;13.80;93.70;;;;;;4935758;29;20023;-71
2021/06/13 06:12:22;;;;;;;14.27;5.82;;;13.80;93.50;;;;;;4936465;29;20031;-74
2021/06/13 06:14:48;;;;;;;11.70;5.82;;;13.90;93.20;;;;;;4916377;29;20051;-73
2021/06/13 06:17:14;;;;;;;10.50;5.05;;;13.90;92.80;;;;;;4934823;29;20066;-71
2021/06/13 06:19:40;;;;;;;10.35;5.40;;;14.00;92.70;;;;;;4936032;29;20058;-74
2021/06/13 06:22:06;;;;;;;10.68;5.20;;;14.10;92.50;;;;;;4935278;29;20453;-74
2021/06/13 06:24:32;;;;;;;10.27;5.15;;;14.20;92.30;;;;;;4936006;29;20042;-73
2021/06/13 06:26:58;;;;;;;10.15;5.30;;;14.20;91.90;;;;;;4935726;29;20118;-73
2021/06/13 06:29:24;;;;;;;12.95;6.13;;;14.30;91.60;;;;;;4947514;29;20107;-74
2021/06/13 06:31:50;;;;;;;8.95;4.85;;;14.30;91.40;;;;;;4954510;29;20105;-74
2021/06/13 06:34:16;;;;;;;7.88;5.57;;;14.40;91.50;;;;;;4954953;29;20023;-71
2021/06/13 06:36:43;;;;;;;12.00;5.28;;;14.40;91.50;;;;;;4936722;29;20047;-71
2021/06/13 06:39:08;;;;;;;10.07;5.00;;;14.50;91.50;;;;;;4955090;29;20035;-85
2021/06/13 06:41:38;;;;;;;11.32;4.82;;;14.50;91.50;;;;;;4955020;29;20031;-75
2021/06/13 06:44:04;;;;;;;8.13;5.07;;;14.60;91.50;;;;;;4953981;29;20567;-78
2021/06/13 06:46:30;;;;;;;8.50;5.10;;;14.60;91.20;;;;;;4953302;28;20039;-80
2021/06/13 06:48:56;;;;;;;7.47;4.50;;;14.70;90.80;;;;;;4936389;29;20440;-77
2021/06/13 06:51:22;;;;;;;9.07;4.68;;;14.80;90.40;;;;;;4940171;28;20027;-74
2021/06/13 06:53:48;;;;;;;9.05;5.03;;;14.80;90.20;;;;;;4944602;29;20109;-74
2021/06/13 06:56:13;;;;;;;10.43;4.47;;;14.90;90.20;;;;;;4953858;29;20058;-76
2021/06/13 06:58:39;;;;;;;8.07;4.47;;;15.00;90.00;;;;;;4937764;29;20087;-83
2021/06/13 07:01:04;;;;;;;9.85;4.78;;;15.00;89.80;;;;;;4954435;29;20086;-80
2021/06/13 07:03:30;;;;;;;7.40;4.15;;;15.10;89.30;;;;;;4936738;29;20534;-84
2021/06/13 07:05:56;;;;;;;10.05;4.95;;;15.30;89.20;;;;;;4936774;29;20031;-85
2021/06/13 07:08:21;;;;;;;10.20;4.47;;;15.40;88.00;;;;;;4954602;29;20106;-82
2021/06/13 07:10:47;;;;;;;8.23;3.95;;;15.60;87.20;;;;;;4953399;29;20467;-77
2021/06/13 07:13:12;;;;;;;10.77;4.18;;;15.80;85.90;;;;;;4954394;29;20023;-79
2021/06/13 07:15:38;;;;;;;11.32;5.30;;;15.90;84.30;;;;;;4937042;29;20074;-76
2021/06/13 07:18:04;;;;;;;9.05;4.55;;;16.00;83.60;;;;;;4955589;28;20055;-81
2021/06/13 07:20:30;;;;;;;7.47;3.60;;;16.10;83.90;;;;;;4959689;28;20023;-82
2021/06/13 07:22:55;;;;;;;8.07;4.35;;;16.20;84.80;;;;;;4953426;28;20028;-78
2021/06/13 07:25:21;;;;;;;9.68;4.20;;;16.30;85.50;;;;;;4945635;28;20034;-82
2021/06/13 07:27:47;;;;;;;14.65;4.88;;;16.30;85.80;;;;;;4937404;28;20073;-82
2021/06/13 07:30:15;;;;;;;7.32;4.03;;;16.30;84.80;;;;;;4956362;28;20023;-76
2021/06/13 07:32:42;;;;;;;8.23;4.30;;;16.40;84.80;;;;;;4955375;28;20193;-82
2021/06/13 07:35:11;;;;;;;9.68;4.72;;;16.50;84.60;;;;;;4967947;28;20126;-81
2021/06/13 07:37:37;;;;;;;10.07;5.18;;;16.60;83.30;;;;;;4973434;28;20093;-83
2021/06/13 07:40:05;;;;;;;7.28;4.03;;;16.70;83.00;;;;;;4972514;28;20411;-79
2021/06/13 07:42:31;;;;;;;9.82;4.35;;;16.70;82.10;;;;;;4962673;28;20388;-72
2021/06/13 07:44:57;;;;;;;11.13;4.80;;;16.60;81.60;;;;;;4944312;28;20028;-79
2021/06/13 07:47:23;;;;;;;10.63;4.97;;;16.70;81.60;;;;;;4961221;28;20038;-76
2021/06/13 07:49:49;;;;;;;7.88;4.60;;;16.70;81.60;;;;;;4951056;28;20490;-81
2021/06/13 07:52:14;;;;;;;9.05;4.82;;;16.70;81.20;;;;;;4958980;28;20062;-82
2021/06/13 07:54:40;;;;;;;9.77;4.95;;;16.70;80.50;;;;;;4930706;29;20512;-79
2021/06/13 07:57:06;;;;;;;7.57;4.38;;;16.70;80.10;;;;;;4949508;28;20037;-78
2021/06/13 07:59:31;;;;;;;8.13;4.68;;;16.70;79.70;;;;;;4944514;28;20093;-75
2021/06/13 08:01:57;;;;;;;9.52;4.65;;;16.70;79.80;;;;;;4936855;28;20028;-76
2021/06/13 08:04:23;;;;;;;10.25;4.40;;;16.70;79.70;;;;;;4963297;28;20027;-77
2021/06/13 08:06:49;;;;;;;6.10;4.03;;;16.70;79.60;;;;;;4946662;28;20103;-81
2021/06/13 08:09:14;;;;;;;8.40;4.53;;;16.80;79.50;;;;;;4951219;28;20057;-73
2021/06/13 08:11:40;;;;;;;8.77;4.28;;;16.70;78.50;;;;;;4960221;28;20409;-83
2021/06/13 08:14:06;;;;;;;11.32;4.95;;;16.70;78.10;;;;;;4952968;28;20114;-81
2021/06/13 08:16:31;;;;;;;10.65;4.30;;;16.80;78.20;;;;;;4976697;28;20077;-80
2021/06/13 08:18:57;;;;;;;10.05;4.53;;;16.80;78.60;;;;;;4976384;28;20046;-77
2021/06/13 08:21:23;;;;;;;13.52;4.20;;;16.90;78.00;;;;;;4959175;28;20027;-75
2021/06/13 08:23:48;;;;;;;10.13;4.88;;;16.90;78.00;;;;;;4956892;29;20031;-73
2021/06/13 08:26:14;;;;;;;8.38;4.47;;;16.90;78.20;;;;;;4955192;29;20118;-79
2021/06/13 08:28:40;;;;;;;10.38;4.90;;;17.10;78.60;;;;;;4956646;29;20023;-79
2021/06/13 08:31:06;;;;;;;8.68;4.43;;;17.20;78.20;;;;;;4962728;28;20031;-78
2021/06/13 08:33:32;;;;;;;6.15;3.78;;;17.30;77.60;;;;;;4944317;28;20038;-73
2021/06/13 08:35:57;;;;;;;7.22;4.32;;;17.40;76.90;;;;;;4955416;28;20058;-73
2021/06/13 08:38:24;;;;;;;10.45;4.15;;;17.50;76.40;;;;;;4949230;29;20023;-76
2021/06/13 08:40:50;;;;;;;8.55;4.15;;;17.60;75.50;;;;;;4955060;28;20492;-73
2021/06/13 08:43:16;;;;;;;9.90;4.75;;;17.60;76.00;;;;;;4966599;28;20030;-73
2021/06/13 08:45:44;;;;;;;7.97;4.10;;;17.70;75.70;;;;;;4923996;28;20399;-73
2021/06/13 08:48:10;;;;;;;9.25;3.88;;;17.70;75.30;;;;;;4973514;28;20026;-72
2021/06/13 08:50:37;;;;;;;8.98;4.65;;;17.80;75.50;;;;;;4975611;28;20031;-72
2021/06/13 08:53:03;;;;;;;8.73;4.70;;;17.90;75.80;;;;;;4975654;28;20058;-73
2021/06/13 08:55:30;;;;;;;10.23;4.95;;;18.00;75.70;;;;;;4975015;28;20027;-73
2021/06/13 08:57:56;;;;;;;11.23;4.22;;;18.10;76.10;;;;;;4953267;29;20969;-73
2021/06/13 09:00:28;;;;;;;9.25;4.78;;;18.20;74.60;;;;;;4929118;29;20097;-77
2021/06/13 09:02:55;;;;;;;12.15;4.75;;;18.30;74.60;;;;;;4936363;29;20038;-79
2021/06/13 09:05:24;;;;;;;9.25;4.10;;;18.40;74.00;;;;;;4937449;29;20028;-76
2021/06/13 09:08:14;;;;;;;9.07;4.25;;;18.50;72.50;;;;;;4937920;29;20034;-79
2021/06/13 09:10:45;;;;;;;8.43;5.00;;;18.60;73.90;;;;;;4937587;29;20086;-77
2021/06/13 09:13:17;;;;;;;7.82;4.47;;;18.80;73.10;;;;;;4939350;29;20023;-75
2021/06/13 09:15:49;;;;;;;12.52;5.25;;;18.80;72.20;;;;;;4955995;29;20047;-73
2021/06/13 09:18:45;;;;;;;8.30;4.57;;;18.80;73.40;;;;;;4954895;28;20101;-80
2021/06/13 09:21:14;;;;;;;8.20;4.25;;;18.80;73.10;;;;;;4938655;29;20155;-80
2021/06/13 09:23:41;;;;;;;9.10;4.22;;;18.90;72.60;;;;;;4955583;29;20548;-76
2021/06/13 09:26:15;;;;;;;8.77;4.13;;;18.80;71.90;;;;;;4955716;29;20031;-73
2021/06/13 09:28:43;;;;;;;10.98;4.70;;;18.80;72.30;;;;;;4955596;29;20035;-73
2021/06/13 09:31:18;;;;;;;9.05;4.60;;;18.80;72.20;;;;;;4954881;29;20039;-72
2021/06/13 09:33:45;;;;;;;7.32;4.07;;;18.80;71.70;;;;;;4960790;28;20027;-74
2021/06/13 09:36:18;;;;;;;8.52;4.40;;;18.80;71.90;;;;;;4955881;29;20027;-82
2021/06/13 09:38:45;;;;;;;10.15;4.72;;;18.80;72.20;;;;;;4955040;28;20034;-72
2021/06/13 09:41:19;;;;;;;9.18;4.47;;;18.80;71.70;;;;;;4948854;28;20113;-81
2021/06/13 09:43:48;;;;;;;10.50;4.80;;;18.80;71.50;;;;;;4957720;28;20371;-79
2021/06/13 09:46:16;;;;;;;8.38;4.30;;;18.70;71.70;;;;;;4946479;28;20439;-74
2021/06/13 09:48:46;;;;;;;11.15;5.07;;;18.70;72.00;;;;;;4955854;28;20032;-74
2021/06/13 09:51:15;;;;;;;6.90;3.97;;;18.70;72.20;;;;;;4943667;28;20031;-74
2021/06/13 09:53:46;;;;;;;9.23;4.93;;;18.70;73.00;;;;;;4956616;28;20023;-73
2021/06/13 09:56:15;;;;;;;10.45;4.85;;;18.80;72.70;;;;;;4936239;29;20052;-73
2021/06/13 09:58:53;;;;;;;10.18;4.53;;;18.80;73.30;;;;;;4940834;28;20371;-75
2021/06/13 10:01:20;;;;;;;9.43;4.72;;;18.90;73.30;;;;;;4942365;28;20027;-74
2021/06/13 10:03:47;;;;;;;9.88;5.28;;;19.00;71.60;;;;;;4938058;29;20023;-74
2021/06/13 10:06:14;;;;;;;7.75;4.40;;;19.00;71.70;;;;;;4932928;29;20031;-80
2021/06/13 10:08:42;;;;;;;10.20;4.93;;;19.10;71.80;;;;;;4936689;29;20106;-74
2021/06/13 10:11:08;;;;;;;11.45;5.63;;;19.10;71.00;;;;;;4955090;29;20380;-75
2021/06/13 10:13:42;;;;;;;10.55;4.25;;;19.10;71.10;;;;;;4950543;28;20065;-75
2021/06/13 10:16:10;;;;;;;8.27;4.60;;;19.20;71.70;;;;;;4956665;28;20054;-78
2021/06/13 10:18:40;;;;;;;10.82;5.15;;;19.20;71.40;;;;;;4943393;29;20044;-77
2021/06/13 10:21:13;;;;;;;10.50;5.05;;;19.30;69.60;;;;;;4940340;28;20038;-80
2021/06/13 10:23:42;;;;;;;10.75;4.47;;;19.20;70.00;;;;;;4954551;28;20019;-75
2021/06/13 10:26:08;;;;;;;8.23;4.30;;;19.30;70.20;;;;;;4943092;29;20027;-75
2021/06/13 10:28:34;;;;;;;7.50;4.28;;;19.40;70.80;;;;;;4929196;29;20421;-75
2021/06/13 10:31:01;;;;;;;10.48;4.18;;;19.50;70.40;;;;;;4954545;29;20499;-75
2021/06/13 10:33:27;;;;;;;11.85;5.15;;;19.60;69.10;;;;;;4954759;29;20031;-77
2021/06/13 10:35:59;;;;;;;9.15;4.38;;;19.60;68.60;;;;;;4958463;28;20035;-78
2021/06/13 10:38:25;;;;;;;9.10;4.80;;;19.70;69.00;;;;;;4923705;29;20521;-79
2021/06/13 10:40:52;;;;;;;7.68;4.03;;;19.70;68.40;;;;;;4934886;29;20111;-84
2021/06/13 10:43:22;;;;;;;9.55;5.20;;;19.90;68.00;;;;;;4934532;29;20365;-81
2021/06/13 10:45:50;;;;;;;8.02;4.78;;;19.90;68.00;;;;;;4936084;29;20031;-75
2021/06/13 10:48:16;;;;;;;8.55;4.55;;;19.90;68.50;;;;;;4952939;29;20023;-80
2021/06/13 10:50:42;;;;;;;10.77;4.43;;;20.00;67.80;;;;;;4953991;29;20452;-72
2021/06/13 10:53:10;;;;;;;8.68;4.55;;;20.00;68.00;;;;;;4954340;29;20019;-75
2021/06/13 10:55:53;;;;;;;5.70;4.00;;;20.00;68.50;;;;;;4952943;29;20494;-80
2021/06/13 10:58:47;;;;;;;8.95;5.13;;;20.10;68.60;;;;;;4937466;29;20037;-73
2021/06/13 11:01:31;;;;;;;7.97;4.40;;;20.10;67.20;;;;;;4954264;29;20023;-79
2021/06/13 11:03:57;;;;;;;9.38;4.88;;;20.20;68.00;;;;;;4953499;29;20448;-84
2021/06/13 11:06:45;;;;;;;9.93;5.60;;;20.20;66.40;;;;;;4937121;29;20062;-82
2021/06/13 11:09:14;;;;;;;9.50;4.65;;;20.30;66.30;;;;;;4941748;29;20376;-79
2021/06/13 11:11:43;;;;;;;8.77;4.45;;;20.50;66.50;;;;;;4936800;29;20023;-83
2021/06/13 11:14:27;;;;;;;8.82;4.47;;;20.50;65.20;;;;;;4937082;29;20015;-83
2021/06/13 11:16:55;;;;;;;9.65;4.63;;;20.50;65.00;;;;;;4953467;29;20030;-79
2021/06/13 11:19:28;;;;;;;7.38;4.20;;;20.50;65.70;;;;;;4936981;29;20070;-76
2021/06/13 11:22:18;;;;;;;7.75;4.47;;;20.60;65.20;;;;;;4954025;29;20024;-78
2021/06/13 11:24:52;;;;;;;12.13;4.47;;;20.60;63.30;;;;;;4953517;29;20028;-79
2021/06/13 11:27:18;;;;;;;8.63;4.50;;;20.60;64.30;;;;;;4934342;29;20031;-75
2021/06/13 11:29:54;;;;;;;7.30;4.55;;;20.60;64.00;;;;;;4954018;29;20028;-75
2021/06/13 11:32:48;;;;;;;9.75;4.57;;;20.70;64.40;;;;;;4934891;29;20032;-79
2021/06/13 11:35:37;;;;;;;8.32;4.00;;;20.70;63.70;;;;;;4953762;29;20035;-73
2021/06/13 11:38:08;;;;;;;7.43;4.30;;;20.70;62.80;;;;;;4935600;29;20364;-80
2021/06/13 11:40:35;;;;;;;10.23;4.95;;;20.60;63.10;;;;;;4957201;28;20176;-76
2021/06/13 11:43:09;;;;;;;7.53;4.55;;;20.60;62.40;;;;;;4941996;29;20027;-81
2021/06/13 11:45:36;;;;;;;7.55;4.03;;;20.50;63.20;;;;;;4959817;28;20054;-82
2021/06/13 11:48:22;;;;;;;8.82;4.40;;;20.60;63.70;;;;;;4960372;28;20170;-74
2021/06/13 11:51:17;;;;;;;8.02;4.22;;;20.80;62.30;;;;;;4968459;28;20070;-79
2021/06/13 11:54:01;;;;;;;6.53;3.53;;;20.80;61.60;;;;;;4962514;28;20031;-84
2021/06/13 11:56:33;;;;;;;7.78;4.00;;;20.80;62.00;;;;;;4956883;28;20027;-69
2021/06/13 11:59:00;;;;;;;7.97;4.28;;;20.90;61.10;;;;;;4959185;28;20035;-72
2021/06/13 12:01:26;;;;;;;7.40;4.28;;;21.00;62.10;;;;;;4943005;29;20016;-69
2021/06/13 12:03:54;;;;;;;9.70;4.32;;;21.10;62.70;;;;;;4959719;29;20031;-76
2021/06/13 12:06:20;;;;;;;9.35;4.50;;;21.20;61.90;;;;;;4941280;29;20045;-71
2021/06/13 12:08:48;;;;;;;8.45;4.50;;;21.20;61.60;;;;;;4968834;28;20110;-83
2021/06/13 12:11:35;;;;;;;7.00;4.32;;;21.30;61.30;;;;;;4955839;28;20117;-72
2021/06/13 12:14:41;;;;;;;7.10;3.80;;;21.30;61.40;;;;;;4943493;28;20050;-71
2021/06/13 12:17:22;;;;;;;7.00;4.10;;;21.40;62.90;;;;;;4959980;28;20038;-72
2021/06/13 12:19:54;;;;;;;8.80;4.30;;;21.50;61.30;;;;;;4960333;28;20031;-73
2021/06/13 12:27:32;;;;;;;6.13;3.65;;;21.60;60.90;;;;;;4977551;28;20444;-71
2021/06/13 12:30:12;;;;;;;6.28;3.85;;;21.80;60.80;;;;;;4960606;28;20022;-72
2021/06/13 12:32:38;;;;;;;7.43;3.80;;;21.90;59.60;;;;;;4979632;28;20023;-71
2021/06/13 12:35:15;;;;;;;11.60;3.63;;;21.90;58.80;;;;;;4960893;28;20090;-71
2021/06/13 12:38:02;;;;;;;7.90;4.15;;;21.90;58.50;;;;;;4961811;28;20054;-72
2021/06/13 12:40:40;;;;;;;7.40;3.97;;;21.80;60.10;;;;;;4979059;28;20019;-72
2021/06/13 12:43:07;;;;;;;7.60;4.18;;;22.00;60.20;;;;;;4978996;28;20030;-72
2021/06/13 12:45:34;;;;;;;6.53;3.53;;;22.00;59.00;;;;;;4961649;28;20014;-73
2021/06/13 12:48:01;;;;;;;9.15;4.60;;;22.00;58.50;;;;;;4978298;28;20031;-72
2021/06/13 12:50:33;;;;;;;7.00;3.85;;;22.00;58.70;;;;;;4979153;28;20034;-72
2021/06/13 12:53:00;;;;;;;4.38;3.13;;;22.00;58.70;;;;;;4957698;28;20030;-72
2021/06/13 12:55:38;;;;;;;4.85;3.80;;;22.10;59.50;;;;;;4975397;28;20031;-71